KCTY/CTY METAR and TAF weather

Enter ICAO airport designator
Station Type Date Time Source
KCTY METAR 2020/03/28 21:15 UTC NOAA

KCTY 282115Z AUTO 25008KT 10SM CLR 29/19 A3003 RMK AO2 T02930185


Station Type Date Time Source
KCTY Decoded METAR 2020/03/28 21:15 UTC NOAA

CROSS CITY AIRPORT, FL, United States (KCTY) 29-38N 083-06W 12M
Mar 28, 2020 - 05:15 PM EDT / 2020.03.28 2115 UTC
Wind: from the WSW (250 degrees) at 9 MPH (8 KT):0
Visibility: 10 mile(s):0
Sky conditions: clear
Temperature: 84.7 F (29.3 C)
Dew Point: 65.3 F (18.5 C)
Relative Humidity: 52%
Pressure (altimeter): 30.03 in. Hg (1016 hPa)
ob: KCTY 282115Z AUTO 25008KT 10SM CLR 29/19 A3003 RMK AO2 T02930185
cycle: 21

Station Type Date Time Source
KCTY TAF UTC NOAA

Error!

Example: see airport list